sensor_id;sensor_type;location;lat;lon;timestamp;pressure;altitude;pressure_sealevel;temperature;humidity
38054;BME280;23859;50.672;7.164;2023-06-24T00:00:10;47075.22;;;-140.95;67.52
38054;BME280;23859;50.672;7.164;2023-06-24T00:02:37;47099.41;;;-140.95;68.36
38054;BME280;23859;50.672;7.164;2023-06-24T00:05:05;47093.38;;;-140.95;68.57
38054;BME280;23859;50.672;7.164;2023-06-24T00:07:32;47109.47;;;-140.95;68.51
38054;BME280;23859;50.672;7.164;2023-06-24T00:10:10;47109.47;;;-140.95;68.87
38054;BME280;23859;50.672;7.164;2023-06-24T00:12:36;47103.44;;;-140.95;69.29
38054;BME280;23859;50.672;7.164;2023-06-24T00:15:03;47115.53;;;-140.95;69.40
38054;BME280;23859;50.672;7.164;2023-06-24T00:17:30;47119.56;;;-140.95;70.48
38054;BME280;23859;50.672;7.164;2023-06-24T00:19:56;47115.53;;;-140.95;70.30
38054;BME280;23859;50.672;7.164;2023-06-24T00:22:22;47111.50;;;-140.95;70.42
38054;BME280;23859;50.672;7.164;2023-06-24T00:24:48;47111.50;;;-140.95;70.97
38054;BME280;23859;50.672;7.164;2023-06-24T00:27:14;47119.56;;;-140.95;70.81
38054;BME280;23859;50.672;7.164;2023-06-24T00:29:40;47131.66;;;-140.95;71.00
38054;BME280;23859;50.672;7.164;2023-06-24T00:32:07;47123.59;;;-140.95;71.17
38054;BME280;23859;50.672;7.164;2023-06-24T00:34:33;47119.56;;;-140.95;71.40
38054;BME280;23859;50.672;7.164;2023-06-24T00:37:00;47119.56;;;-140.95;70.60
38054;BME280;23859;50.672;7.164;2023-06-24T00:39:28;47127.63;;;-140.95;70.42
38054;BME280;23859;50.672;7.164;2023-06-24T00:41:54;47123.59;;;-140.95;71.05
38054;BME280;23859;50.672;7.164;2023-06-24T00:44:20;47147.75;;;-140.95;71.63
38054;BME280;23859;50.672;7.164;2023-06-24T00:46:47;47135.69;;;-140.95;72.35
38054;BME280;23859;50.672;7.164;2023-06-24T00:49:14;47129.63;;;-140.95;72.13
38054;BME280;23859;50.672;7.164;2023-06-24T00:51:42;47123.59;;;-140.95;70.71
38054;BME280;23859;50.672;7.164;2023-06-24T00:54:13;47125.59;;;-140.95;70.35
38054;BME280;23859;50.672;7.164;2023-06-24T00:56:39;47123.59;;;-140.95;71.03
38054;BME280;23859;50.672;7.164;2023-06-24T00:59:07;47125.59;;;-140.95;71.00
38054;BME280;23859;50.672;7.164;2023-06-24T01:01:34;47153.81;;;-140.95;71.95
38054;BME280;23859;50.672;7.164;2023-06-24T01:04:02;47127.63;;;-140.95;71.76
38054;BME280;23859;50.672;7.164;2023-06-24T01:06:30;47143.75;;;-140.95;72.18
38054;BME280;23859;50.672;7.164;2023-06-24T01:09:00;47135.69;;;-140.95;72.62
38054;BME280;23859;50.672;7.164;2023-06-24T01:11:32;47143.75;;;-140.95;72.30
38054;BME280;23859;50.672;7.164;2023-06-24T01:13:58;47143.75;;;-140.95;72.57
38054;BME280;23859;50.672;7.164;2023-06-24T01:16:31;47143.75;;;-140.95;72.47
38054;BME280;23859;50.672;7.164;2023-06-24T01:19:12;47141.72;;;-140.95;73.00
38054;BME280;23859;50.672;7.164;2023-06-24T01:22:21;47141.72;;;-140.95;72.44
38054;BME280;23859;50.672;7.164;2023-06-24T01:33:50;47147.75;;;-140.95;73.37
38054;BME280;23859;50.672;7.164;2023-06-24T01:36:22;47159.84;;;-140.95;73.46
38054;BME280;23859;50.672;7.164;2023-06-24T01:39:01;47149.78;;;-140.95;73.56
38054;BME280;23859;50.672;7.164;2023-06-24T01:41:32;47145.75;;;-140.95;73.69
38054;BME280;23859;50.672;7.164;2023-06-24T01:44:02;47165.91;;;-140.95;73.74
38054;BME280;23859;50.672;7.164;2023-06-24T01:46:30;47157.84;;;-140.95;73.40
38054;BME280;23859;50.672;7.164;2023-06-24T01:49:01;47121.56;;;-140.95;72.41
38054;BME280;23859;50.672;7.164;2023-06-24T01:51:30;47155.81;;;-140.95;72.36
38054;BME280;23859;50.672;7.164;2023-06-24T01:54:02;47147.75;;;-140.95;71.54
38054;BME280;23859;50.672;7.164;2023-06-24T01:56:32;47135.69;;;-140.95;71.76
38054;BME280;23859;50.672;7.164;2023-06-24T01:59:02;47147.75;;;-140.95;71.93
38054;BME280;23859;50.672;7.164;2023-06-24T02:01:31;47147.75;;;-140.95;72.15
38054;BME280;23859;50.672;7.164;2023-06-24T02:04:00;47141.72;;;-140.95;72.53
38054;BME280;23859;50.672;7.164;2023-06-24T02:06:28;47145.75;;;-140.95;72.41
38054;BME280;23859;50.672;7.164;2023-06-24T02:08:57;47141.72;;;-140.95;72.32
38054;BME280;23859;50.672;7.164;2023-06-24T02:11:29;47149.78;;;-140.95;71.75
38054;BME280;23859;50.672;7.164;2023-06-24T02:13:56;47147.75;;;-140.95;71.61
38054;BME280;23859;50.672;7.164;2023-06-24T02:16:23;47129.63;;;-140.95;71.48
38054;BME280;23859;50.672;7.164;2023-06-24T02:18:51;47159.84;;;-140.95;72.08
38054;BME280;23859;50.672;7.164;2023-06-24T02:21:21;47151.78;;;-140.95;72.18
38054;BME280;23859;50.672;7.164;2023-06-24T02:23:49;47143.75;;;-140.95;72.71
38054;BME280;23859;50.672;7.164;2023-06-24T02:26:18;47129.63;;;-140.95;73.18
38054;BME280;23859;50.672;7.164;2023-06-24T02:28:45;47119.56;;;-140.95;72.68
38054;BME280;23859;50.672;7.164;2023-06-24T02:31:15;47149.78;;;-140.95;72.15
38054;BME280;23859;50.672;7.164;2023-06-24T02:33:42;47145.75;;;-140.95;72.25
38054;BME280;23859;50.672;7.164;2023-06-24T02:36:08;47139.72;;;-140.95;71.71
38054;BME280;23859;50.672;7.164;2023-06-24T02:38:35;47141.72;;;-140.95;71.58
38054;BME280;23859;50.672;7.164;2023-06-24T02:41:03;47151.78;;;-140.95;72.19
38054;BME280;23859;50.672;7.164;2023-06-24T02:43:30;47143.75;;;-140.95;71.89
38054;BME280;23859;50.672;7.164;2023-06-24T02:45:59;47151.78;;;-140.95;72.17
38054;BME280;23859;50.672;7.164;2023-06-24T02:48:26;47524.59;;;-140.95;72.56
38054;BME280;23859;50.672;7.164;2023-06-24T02:50:54;47151.78;;;-140.95;72.57
38054;BME280;23859;50.672;7.164;2023-06-24T02:53:21;47159.84;;;-140.95;72.93
38054;BME280;23859;50.672;7.164;2023-06-24T02:55:47;47149.78;;;-140.95;73.36
38054;BME280;23859;50.672;7.164;2023-06-24T02:58:14;47159.84;;;-140.95;73.12
38054;BME280;23859;50.672;7.164;2023-06-24T03:00:41;47151.78;;;-140.95;73.14
38054;BME280;23859;50.672;7.164;2023-06-24T03:03:07;47145.75;;;-140.95;73.08
38054;BME280;23859;50.672;7.164;2023-06-24T03:05:34;47155.81;;;-140.95;73.11
38054;BME280;23859;50.672;7.164;2023-06-24T03:08:01;47163.88;;;-140.95;73.30
38054;BME280;23859;50.672;7.164;2023-06-24T03:10:29;47159.84;;;-140.95;72.58
38054;BME280;23859;50.672;7.164;2023-06-24T03:12:55;47171.94;;;-140.95;72.47
38054;BME280;23859;50.672;7.164;2023-06-24T03:15:21;47175.97;;;-140.95;72.64
38054;BME280;23859;50.672;7.164;2023-06-24T03:17:49;47167.91;;;-140.95;72.41
38054;BME280;23859;50.672;7.164;2023-06-24T03:20:16;47159.84;;;-140.95;73.26
38054;BME280;23859;50.672;7.164;2023-06-24T03:22:42;47163.88;;;-140.95;73.40
38054;BME280;23859;50.672;7.164;2023-06-24T03:25:09;47153.81;;;-140.95;73.61
38054;BME280;23859;50.672;7.164;2023-06-24T03:27:35;47161.88;;;-140.95;74.20
38054;BME280;23859;50.672;7.164;2023-06-24T03:30:02;47155.81;;;-140.95;74.05
38054;BME280;23859;50.672;7.164;2023-06-24T03:32:28;47167.91;;;-140.95;74.52
38054;BME280;23859;50.672;7.164;2023-06-24T03:34:54;47169.94;;;-140.95;74.38
38054;BME280;23859;50.672;7.164;2023-06-24T03:37:20;47167.91;;;-140.95;74.25
38054;BME280;23859;50.672;7.164;2023-06-24T03:39:47;47143.75;;;-140.95;74.39
38054;BME280;23859;50.672;7.164;2023-06-24T03:42:13;47180.00;;;-140.95;74.92
38054;BME280;23859;50.672;7.164;2023-06-24T03:44:39;47163.88;;;-140.95;74.25
38054;BME280;23859;50.672;7.164;2023-06-24T03:47:05;47161.88;;;-140.95;74.76
38054;BME280;23859;50.672;7.164;2023-06-24T03:49:31;47163.88;;;-140.95;74.63
38054;BME280;23859;50.672;7.164;2023-06-24T03:51:57;47155.81;;;-140.95;73.79
38054;BME280;23859;50.672;7.164;2023-06-24T03:54:23;47159.84;;;-140.95;74.36
38054;BME280;23859;50.672;7.164;2023-06-24T03:56:49;47165.91;;;-140.95;74.67
38054;BME280;23859;50.672;7.164;2023-06-24T03:59:16;47313.00;;;-140.95;74.57
38054;BME280;23859;50.672;7.164;2023-06-24T04:01:42;47169.94;;;-140.95;75.08
38054;BME280;23859;50.672;7.164;2023-06-24T04:04:08;47161.88;;;-140.95;75.00
38054;BME280;23859;50.672;7.164;2023-06-24T04:06:34;47182.03;;;-140.95;75.16
38054;BME280;23859;50.672;7.164;2023-06-24T04:09:00;47171.94;;;-140.95;75.25
38054;BME280;23859;50.672;7.164;2023-06-24T04:11:27;47165.91;;;-140.95;75.04
38054;BME280;23859;50.672;7.164;2023-06-24T04:13:53;47159.84;;;-140.95;74.75
38054;BME280;23859;50.672;7.164;2023-06-24T04:16:19;47169.94;;;-140.95;74.87
38054;BME280;23859;50.672;7.164;2023-06-24T04:18:45;47165.91;;;-140.95;75.14
38054;BME280;23859;50.672;7.164;2023-06-24T04:21:11;47145.75;;;-140.95;75.48
38054;BME280;23859;50.672;7.164;2023-06-24T04:23:37;47151.78;;;-140.95;74.90
38054;BME280;23859;50.672;7.164;2023-06-24T04:26:03;47155.81;;;-140.95;74.84
38054;BME280;23859;50.672;7.164;2023-06-24T04:28:29;47143.75;;;-140.95;74.76
38054;BME280;23859;50.672;7.164;2023-06-24T04:30:56;47151.78;;;-140.95;74.74
38054;BME280;23859;50.672;7.164;2023-06-24T04:33:22;47147.75;;;-140.95;72.52
38054;BME280;23859;50.672;7.164;2023-06-24T04:35:50;47145.75;;;-140.95;72.82
38054;BME280;23859;50.672;7.164;2023-06-24T04:38:17;47141.72;;;-140.95;72.18
38054;BME280;23859;50.672;7.164;2023-06-24T04:40:44;47131.66;;;-140.95;72.95
38054;BME280;23859;50.672;7.164;2023-06-24T04:43:11;47151.78;;;-140.95;71.99
38054;BME280;23859;50.672;7.164;2023-06-24T04:45:37;47151.78;;;-140.95;72.02
38054;BME280;23859;50.672;7.164;2023-06-24T04:48:03;47145.75;;;-140.95;72.36
38054;BME280;23859;50.672;7.164;2023-06-24T04:50:29;47133.66;;;-140.95;72.27
38054;BME280;23859;50.672;7.164;2023-06-24T04:52:55;47129.63;;;-140.95;72.49
38054;BME280;23859;50.672;7.164;2023-06-24T04:55:22;47123.59;;;-140.95;72.27
38054;BME280;23859;50.672;7.164;2023-06-24T04:57:49;47137.69;;;-140.95;72.00
38054;BME280;23859;50.672;7.164;2023-06-24T05:00:15;47131.66;;;-140.95;71.82
38054;BME280;23859;50.672;7.164;2023-06-24T05:02:41;47119.56;;;-140.95;71.75
38054;BME280;23859;50.672;7.164;2023-06-24T05:05:07;47131.66;;;-140.95;71.53
38054;BME280;23859;50.672;7.164;2023-06-24T05:07:34;47127.63;;;-140.95;70.66
38054;BME280;23859;50.672;7.164;2023-06-24T05:10:00;47121.56;;;-140.95;70.42
38054;BME280;23859;50.672;7.164;2023-06-24T05:12:28;47043.00;;;-140.95;69.87
38054;BME280;23859;50.672;7.164;2023-06-24T05:14:57;47103.44;;;-140.95;70.48
38054;BME280;23859;50.672;7.164;2023-06-24T05:17:23;47111.50;;;-140.95;70.18
38054;BME280;23859;50.672;7.164;2023-06-24T05:19:49;47107.47;;;-140.95;69.53
38054;BME280;23859;50.672;7.164;2023-06-24T05:22:16;47103.44;;;-140.95;68.60
38054;BME280;23859;50.672;7.164;2023-06-24T05:24:42;47091.34;;;-140.95;68.33
38054;BME280;23859;50.672;7.164;2023-06-24T05:27:08;47089.34;;;-140.95;67.76
38054;BME280;23859;50.672;7.164;2023-06-24T05:29:34;47071.19;;;-140.95;66.21
38054;BME280;23859;50.672;7.164;2023-06-24T05:32:01;47067.16;;;-140.95;65.71
38054;BME280;23859;50.672;7.164;2023-06-24T05:34:29;47067.16;;;-140.95;64.71
38054;BME280;23859;50.672;7.164;2023-06-24T05:36:56;47067.16;;;-140.95;63.87
38054;BME280;23859;50.672;7.164;2023-06-24T05:39:22;47040.97;;;-140.95;63.41
38054;BME280;23859;50.672;7.164;2023-06-24T05:41:48;47043.00;;;-140.95;62.92
38054;BME280;23859;50.672;7.164;2023-06-24T05:44:15;47022.84;;;-140.95;62.54
38054;BME280;23859;50.672;7.164;2023-06-24T05:46:41;46982.53;;;-140.95;61.32
38054;BME280;23859;50.672;7.164;2023-06-24T05:49:07;47028.88;;;-140.95;61.06
38054;BME280;23859;50.672;7.164;2023-06-24T05:51:33;47016.78;;;-140.95;60.80
38054;BME280;23859;50.672;7.164;2023-06-24T05:53:59;47026.88;;;-140.95;61.15
38054;BME280;23859;50.672;7.164;2023-06-24T05:56:25;47043.00;;;-140.95;61.91
38054;BME280;23859;50.672;7.164;2023-06-24T05:58:52;47022.84;;;-140.95;61.53
38054;BME280;23859;50.672;7.164;2023-06-24T06:01:18;47018.81;;;-140.95;59.52
38054;BME280;23859;50.672;7.164;2023-06-24T06:03:44;47014.78;;;-140.95;59.41
38054;BME280;23859;50.672;7.164;2023-06-24T06:06:10;47002.69;;;-140.95;59.63
38054;BME280;23859;50.672;7.164;2023-06-24T06:08:36;47014.78;;;-140.95;59.21
38054;BME280;23859;50.672;7.164;2023-06-24T06:11:02;47010.75;;;-140.95;59.92
38054;BME280;23859;50.672;7.164;2023-06-24T06:13:29;47018.81;;;-140.95;59.70
38054;BME280;23859;50.672;7.164;2023-06-24T06:15:56;47014.78;;;-140.95;59.56
38054;BME280;23859;50.672;7.164;2023-06-24T06:18:22;47010.75;;;-140.95;58.23
38054;BME280;23859;50.672;7.164;2023-06-24T06:20:48;47004.72;;;-140.95;58.11
38054;BME280;23859;50.672;7.164;2023-06-24T06:23:15;46998.66;;;-140.95;57.32
38054;BME280;23859;50.672;7.164;2023-06-24T06:25:42;46978.50;;;-140.95;56.71
38054;BME280;23859;50.672;7.164;2023-06-24T06:28:08;46982.53;;;-140.95;56.08
38054;BME280;23859;50.672;7.164;2023-06-24T06:30:34;46970.44;;;-140.95;56.25
38054;BME280;23859;50.672;7.164;2023-06-24T06:33:00;46974.47;;;-140.95;56.29
38054;BME280;23859;50.672;7.164;2023-06-24T06:35:26;46982.53;;;-140.95;55.76
38054;BME280;23859;50.672;7.164;2023-06-24T06:37:52;46986.56;;;-140.95;56.10
38054;BME280;23859;50.672;7.164;2023-06-24T06:40:20;46970.44;;;-140.95;55.41
38054;BME280;23859;50.672;7.164;2023-06-24T06:42:47;46976.50;;;-140.95;55.06
38054;BME280;23859;50.672;7.164;2023-06-24T06:45:13;46968.44;;;-140.95;55.55
38054;BME280;23859;50.672;7.164;2023-06-24T06:47:40;46986.56;;;-140.95;55.34
38054;BME280;23859;50.672;7.164;2023-06-24T06:50:06;46960.38;;;-140.95;54.55
38054;BME280;23859;50.672;7.164;2023-06-24T06:52:33;46958.38;;;-140.95;53.70
38054;BME280;23859;50.672;7.164;2023-06-24T06:55:00;46932.16;;;-140.95;51.64
38054;BME280;23859;50.672;7.164;2023-06-24T06:57:26;46942.25;;;-140.95;51.47
38054;BME280;23859;50.672;7.164;2023-06-24T06:59:52;46944.25;;;-140.95;51.58
38054;BME280;23859;50.672;7.164;2023-06-24T07:02:18;46942.25;;;-140.95;52.41
38054;BME280;23859;50.672;7.164;2023-06-24T07:04:44;46954.34;;;-140.95;53.13
38054;BME280;23859;50.672;7.164;2023-06-24T07:07:11;46942.25;;;-140.95;53.45
38054;BME280;23859;50.672;7.164;2023-06-24T07:09:37;46938.22;;;-140.95;52.76
38054;BME280;23859;50.672;7.164;2023-06-24T07:12:04;46901.94;;;-140.95;50.82
38054;BME280;23859;50.672;7.164;2023-06-24T07:14:30;46879.78;;;-140.95;48.91
38054;BME280;23859;50.672;7.164;2023-06-24T07:16:56;46837.47;;;-140.95;46.11
38054;BME280;23859;50.672;7.164;2023-06-24T07:19:22;46789.13;;;-140.95;41.83
38054;BME280;23859;50.672;7.164;2023-06-24T07:21:48;46728.69;;;-140.95;37.65
38054;BME280;23859;50.672;7.164;2023-06-24T07:24:14;46746.81;;;-140.95;37.67
38054;BME280;23859;50.672;7.164;2023-06-24T07:26:40;46668.22;;;-140.95;34.11
38054;BME280;23859;50.672;7.164;2023-06-24T07:29:09;46636.00;;;-140.95;31.42
38054;BME280;23859;50.672;7.164;2023-06-24T07:31:38;46609.81;;;-140.95;29.44
38054;BME280;23859;50.672;7.164;2023-06-24T07:34:04;46595.69;;;-140.95;28.76
38054;BME280;23859;50.672;7.164;2023-06-24T07:36:31;46587.66;;;-140.95;28.80
38054;BME280;23859;50.672;7.164;2023-06-24T07:38:57;46581.59;;;-140.95;28.16
38054;BME280;23859;50.672;7.164;2023-06-24T07:41:23;46531.22;;;-140.95;26.76
38054;BME280;23859;50.672;7.164;2023-06-24T07:43:49;46539.28;;;-140.95;26.93
38054;BME280;23859;50.672;7.164;2023-06-24T07:46:15;46551.38;;;-140.95;27.15
38054;BME280;23859;50.672;7.164;2023-06-24T07:48:42;46503.03;;;-140.95;25.40
38054;BME280;23859;50.672;7.164;2023-06-24T07:51:08;46503.03;;;-140.95;24.96
38054;BME280;23859;50.672;7.164;2023-06-24T07:53:35;46492.94;;;-140.95;24.11
38054;BME280;23859;50.672;7.164;2023-06-24T07:56:01;46579.59;;;-140.95;28.12
38054;BME280;23859;50.672;7.164;2023-06-24T07:58:27;46529.22;;;-140.95;25.42
38054;BME280;23859;50.672;7.164;2023-06-24T08:00:53;46519.16;;;-140.95;25.16
38054;BME280;23859;50.672;7.164;2023-06-24T08:03:19;46623.91;;;-140.95;29.29
38054;BME280;23859;50.672;7.164;2023-06-24T08:05:45;46565.47;;;-140.95;27.35
38054;BME280;23859;50.672;7.164;2023-06-24T08:08:14;46583.63;;;-140.95;28.93
38054;BME280;23859;50.672;7.164;2023-06-24T08:10:40;46710.53;;;-140.95;34.13
38054;BME280;23859;50.672;7.164;2023-06-24T08:13:06;46638.00;;;-140.95;33.16
38054;BME280;23859;50.672;7.164;2023-06-24T08:15:32;46676.28;;;-140.95;32.45
38054;BME280;23859;50.672;7.164;2023-06-24T08:17:58;46740.75;;;-140.95;37.17
38054;BME280;23859;50.672;7.164;2023-06-24T08:20:24;46736.72;;;-140.95;36.74
38054;BME280;23859;50.672;7.164;2023-06-24T08:22:50;46712.56;;;-140.95;36.82
38054;BME280;23859;50.672;7.164;2023-06-24T08:25:16;46716.59;;;-140.95;35.71
38054;BME280;23859;50.672;7.164;2023-06-24T08:27:43;46740.75;;;-140.95;37.64
38054;BME280;23859;50.672;7.164;2023-06-24T08:30:13;46750.84;;;-140.95;38.52
38054;BME280;23859;50.672;7.164;2023-06-24T08:32:42;46752.84;;;-140.95;38.83
38054;BME280;23859;50.672;7.164;2023-06-24T08:35:09;46758.91;;;-140.95;38.30
38054;BME280;23859;50.672;7.164;2023-06-24T08:37:36;46762.94;;;-140.95;40.03
38054;BME280;23859;50.672;7.164;2023-06-24T08:40:04;46766.97;;;-140.95;40.56
38054;BME280;23859;50.672;7.164;2023-06-24T08:42:31;46770.97;;;-140.95;40.02
38054;BME280;23859;50.672;7.164;2023-06-24T08:44:57;46773.00;;;-140.95;41.27
38054;BME280;23859;50.672;7.164;2023-06-24T08:47:24;46797.19;;;-140.95;42.13
38054;BME280;23859;50.672;7.164;2023-06-24T08:50:11;46781.06;;;-140.95;40.57
38054;BME280;23859;50.672;7.164;2023-06-24T08:52:41;46789.13;;;-140.95;40.22
38054;BME280;23859;50.672;7.164;2023-06-24T08:55:12;46777.03;;;-140.95;40.83
38054;BME280;23859;50.672;7.164;2023-06-24T08:57:39;46752.84;;;-140.95;39.37
38054;BME280;23859;50.672;7.164;2023-06-24T09:00:07;46738.75;;;-140.95;39.26
38054;BME280;23859;50.672;7.164;2023-06-24T09:02:37;46704.50;;;-140.95;37.23
38054;BME280;23859;50.672;7.164;2023-06-24T09:05:05;46684.34;;;-140.95;35.25
38054;BME280;23859;50.672;7.164;2023-06-24T09:07:31;46718.59;;;-140.95;35.58
38054;BME280;23859;50.672;7.164;2023-06-24T09:09:58;46722.63;;;-140.95;36.04
38054;BME280;23859;50.672;7.164;2023-06-24T09:12:25;46732.69;;;-140.95;38.36
38054;BME280;23859;50.672;7.164;2023-06-24T09:14:52;46718.59;;;-140.95;37.46
38054;BME280;23859;50.672;7.164;2023-06-24T09:17:19;46720.63;;;-140.95;37.26
38054;BME280;23859;50.672;7.164;2023-06-24T09:19:48;46688.38;;;-140.95;33.20
38054;BME280;23859;50.672;7.164;2023-06-24T09:22:14;46664.19;;;-140.95;32.14
38054;BME280;23859;50.672;7.164;2023-06-24T09:24:45;46623.91;;;-140.95;31.80
38054;BME280;23859;50.672;7.164;2023-06-24T09:27:13;46619.88;;;-140.95;30.93
38054;BME280;23859;50.672;7.164;2023-06-24T09:29:40;46648.09;;;-140.95;30.62
38054;BME280;23859;50.672;7.164;2023-06-24T09:32:07;46619.88;;;-140.95;31.23
38054;BME280;23859;50.672;7.164;2023-06-24T09:34:34;46591.66;;;-140.95;28.54
38054;BME280;23859;50.672;7.164;2023-06-24T09:37:01;46595.69;;;-140.95;28.23
38054;BME280;23859;50.672;7.164;2023-06-24T09:39:28;46615.84;;;-140.95;29.65
38054;BME280;23859;50.672;7.164;2023-06-24T09:42:01;46648.09;;;-140.95;33.13
38054;BME280;23859;50.672;7.164;2023-06-24T09:44:28;46672.25;;;-140.95;32.44
38054;BME280;23859;50.672;7.164;2023-06-24T09:46:55;46680.31;;;-140.95;33.76
38054;BME280;23859;50.672;7.164;2023-06-24T09:49:22;46716.59;;;-140.95;35.00
38054;BME280;23859;50.672;7.164;2023-06-24T09:51:52;46722.63;;;-140.95;34.78
38054;BME280;23859;50.672;7.164;2023-06-24T09:54:20;46740.75;;;-140.95;35.47
38054;BME280;23859;50.672;7.164;2023-06-24T09:56:49;46746.81;;;-140.95;36.48
38054;BME280;23859;50.672;7.164;2023-06-24T09:59:20;46748.81;;;-140.95;37.54
38054;BME280;23859;50.672;7.164;2023-06-24T10:01:48;46752.84;;;-140.95;39.53
38054;BME280;23859;50.672;7.164;2023-06-24T10:04:20;46758.91;;;-140.95;38.95
38054;BME280;23859;50.672;7.164;2023-06-24T10:06:48;46768.97;;;-140.95;37.64
38054;BME280;23859;50.672;7.164;2023-06-24T10:09:14;46768.97;;;-140.95;38.24
38054;BME280;23859;50.672;7.164;2023-06-24T10:11:46;46785.09;;;-140.95;39.33
38054;BME280;23859;50.672;7.164;2023-06-24T10:14:13;46789.13;;;-140.95;40.41
38054;BME280;23859;50.672;7.164;2023-06-24T10:16:41;46754.88;;;-140.95;36.98
38054;BME280;23859;50.672;7.164;2023-06-24T10:19:08;46726.66;;;-140.95;36.42
38054;BME280;23859;50.672;7.164;2023-06-24T10:21:50;46716.59;;;-140.95;36.91
38054;BME280;23859;50.672;7.164;2023-06-24T10:26:58;46720.63;;;-140.95;36.07
38054;BME280;23859;50.672;7.164;2023-06-24T10:29:35;46752.84;;;-140.95;35.78
38054;BME280;23859;50.672;7.164;2023-06-24T10:32:09;46736.72;;;-140.95;35.82
38054;BME280;23859;50.672;7.164;2023-06-24T10:34:40;46744.78;;;-140.95;36.35
38054;BME280;23859;50.672;7.164;2023-06-24T10:40:00;46720.63;;;-140.95;36.42
38054;BME280;23859;50.672;7.164;2023-06-24T10:50:18;46720.63;;;-140.95;34.82
38054;BME280;23859;50.672;7.164;2023-06-24T10:52:46;46704.50;;;-140.95;34.32
38054;BME280;23859;50.672;7.164;2023-06-24T10:55:19;46676.28;;;-140.95;32.73
38054;BME280;23859;50.672;7.164;2023-06-24T10:57:45;46692.41;;;-140.95;32.72
38054;BME280;23859;50.672;7.164;2023-06-24T11:00:12;46656.16;;;-140.95;30.99
38054;BME280;23859;50.672;7.164;2023-06-24T11:02:39;46611.81;;;-140.95;27.93
38054;BME280;23859;50.672;7.164;2023-06-24T11:05:05;46597.72;;;-140.95;27.17
38054;BME280;23859;50.672;7.164;2023-06-24T11:07:33;46575.56;;;-140.95;26.20
38054;BME280;23859;50.672;7.164;2023-06-24T11:10:12;46611.81;;;-140.95;27.68
38054;BME280;23859;50.672;7.164;2023-06-24T11:12:39;46605.78;;;-140.95;27.42
38054;BME280;23859;50.672;7.164;2023-06-24T11:15:07;46619.88;;;-140.95;27.83
38054;BME280;23859;50.672;7.164;2023-06-24T11:17:35;46609.81;;;-140.95;28.23
38054;BME280;23859;50.672;7.164;2023-06-24T11:20:02;46611.81;;;-140.95;28.29
38054;BME280;23859;50.672;7.164;2023-06-24T11:22:32;46627.94;;;-140.95;28.51
38054;BME280;23859;50.672;7.164;2023-06-24T11:24:58;46609.81;;;-140.95;27.80
38054;BME280;23859;50.672;7.164;2023-06-24T11:27:25;46629.94;;;-140.95;28.56
38054;BME280;23859;50.672;7.164;2023-06-24T11:29:53;46599.72;;;-140.95;27.28
38054;BME280;23859;50.672;7.164;2023-06-24T11:32:20;46591.66;;;-140.95;27.96
38054;BME280;23859;50.672;7.164;2023-06-24T11:34:47;46593.69;;;-140.95;26.98
38054;BME280;23859;50.672;7.164;2023-06-24T11:37:15;46523.16;;;-140.95;25.38
38054;BME280;23859;50.672;7.164;2023-06-24T11:39:41;46515.13;;;-140.95;23.52
38054;BME280;23859;50.672;7.164;2023-06-24T11:42:08;46438.56;;;-140.95;20.70
38054;BME280;23859;50.672;7.164;2023-06-24T11:44:35;46468.78;;;-140.95;20.91
38054;BME280;23859;50.672;7.164;2023-06-24T11:47:08;46462.72;;;-140.95;20.62
38054;BME280;23859;50.672;7.164;2023-06-24T11:49:47;46414.38;;;-140.95;19.58
38054;BME280;23859;50.672;7.164;2023-06-24T11:52:13;46414.38;;;-140.95;18.67
38054;BME280;23859;50.672;7.164;2023-06-24T11:54:41;46402.28;;;-140.95;19.20
38054;BME280;23859;50.672;7.164;2023-06-24T11:57:09;46382.16;;;-140.95;17.43
38054;BME280;23859;50.672;7.164;2023-06-24T11:59:35;46382.16;;;-140.95;17.96
38054;BME280;23859;50.672;7.164;2023-06-24T12:02:02;46402.28;;;-140.95;17.57
38054;BME280;23859;50.672;7.164;2023-06-24T12:04:33;46424.47;;;-140.95;18.81
38054;BME280;23859;50.672;7.164;2023-06-24T12:07:00;46430.50;;;-140.95;19.58
38054;BME280;23859;50.672;7.164;2023-06-24T12:09:26;46454.69;;;-140.95;19.56
38054;BME280;23859;50.672;7.164;2023-06-24T12:11:52;46484.91;;;-140.95;21.04
38054;BME280;23859;50.672;7.164;2023-06-24T12:14:18;46490.94;;;-140.95;21.19
38054;BME280;23859;50.672;7.164;2023-06-24T12:16:45;46494.97;;;-140.95;22.07
38054;BME280;23859;50.672;7.164;2023-06-24T12:19:11;46531.22;;;-140.95;23.19
38054;BME280;23859;50.672;7.164;2023-06-24T12:21:37;46547.34;;;-140.95;23.56
38054;BME280;23859;50.672;7.164;2023-06-24T12:24:04;46599.72;;;-140.95;26.64
38054;BME280;23859;50.672;7.164;2023-06-24T12:26:31;46629.94;;;-140.95;27.58
38054;BME280;23859;50.672;7.164;2023-06-24T12:28:57;46648.09;;;-140.95;28.50
38054;BME280;23859;50.672;7.164;2023-06-24T12:31:24;46666.22;;;-140.95;31.35
38054;BME280;23859;50.672;7.164;2023-06-24T12:33:50;46676.28;;;-140.95;31.33
38054;BME280;23859;50.672;7.164;2023-06-24T12:36:18;46664.19;;;-140.95;30.82
38054;BME280;23859;50.672;7.164;2023-06-24T12:38:44;46662.19;;;-140.95;30.74
38054;BME280;23859;50.672;7.164;2023-06-24T12:41:10;46660.16;;;-140.95;30.23
38054;BME280;23859;50.672;7.164;2023-06-24T12:43:36;46664.19;;;-140.95;30.00
38054;BME280;23859;50.672;7.164;2023-06-24T12:46:02;46656.16;;;-140.95;30.41
38054;BME280;23859;50.672;7.164;2023-06-24T12:48:28;46672.25;;;-140.95;30.48
38054;BME280;23859;50.672;7.164;2023-06-24T12:50:54;46656.16;;;-140.95;30.72
38054;BME280;23859;50.672;7.164;2023-06-24T12:53:21;46672.25;;;-140.95;31.05
38054;BME280;23859;50.672;7.164;2023-06-24T12:55:47;46680.31;;;-140.95;31.54
38054;BME280;23859;50.672;7.164;2023-06-24T12:58:16;46678.31;;;-140.95;31.31
38054;BME280;23859;50.672;7.164;2023-06-24T13:00:44;46676.28;;;-140.95;28.92
38054;BME280;23859;50.672;7.164;2023-06-24T13:03:10;46680.31;;;-140.95;29.09